sensor_id;sensor_type;location;lat;lon;timestamp;P1;durP1;ratioP1;P2;durP2;ratioP2
18138;SDS011;9195;53.176;9.486;2022-07-29T00:01:34;12.47;;;11.97;;
18138;SDS011;9195;53.176;9.486;2022-07-29T00:03:59;12.70;;;12.20;;
18138;SDS011;9195;53.176;9.486;2022-07-29T00:06:25;12.83;;;12.23;;
18138;SDS011;9195;53.176;9.486;2022-07-29T00:08:51;12.93;;;12.33;;
18138;SDS011;9195;53.176;9.486;2022-07-29T00:11:16;12.57;;;12.07;;
18138;SDS011;9195;53.176;9.486;2022-07-29T00:13:42;12.60;;;12.10;;
18138;SDS011;9195;53.176;9.486;2022-07-29T00:16:07;12.63;;;12.13;;
18138;SDS011;9195;53.176;9.486;2022-07-29T00:18:33;12.33;;;11.83;;
18138;SDS011;9195;53.176;9.486;2022-07-29T00:20:59;12.93;;;12.33;;
18138;SDS011;9195;53.176;9.486;2022-07-29T00:23:25;12.67;;;12.17;;
18138;SDS011;9195;53.176;9.486;2022-07-29T00:25:50;12.30;;;11.80;;
18138;SDS011;9195;53.176;9.486;2022-07-29T00:28:16;12.90;;;12.30;;
18138;SDS011;9195;53.176;9.486;2022-07-29T00:30:41;12.63;;;12.13;;
18138;SDS011;9195;53.176;9.486;2022-07-29T00:33:08;12.30;;;11.80;;
18138;SDS011;9195;53.176;9.486;2022-07-29T00:35:34;12.47;;;11.97;;
18138;SDS011;9195;53.176;9.486;2022-07-29T00:38:13;12.63;;;12.13;;
18138;SDS011;9195;53.176;9.486;2022-07-29T00:40:40;12.97;;;12.37;;
18138;SDS011;9195;53.176;9.486;2022-07-29T00:43:06;13.00;;;12.40;;
18138;SDS011;9195;53.176;9.486;2022-07-29T00:45:32;12.80;;;12.30;;
18138;SDS011;9195;53.176;9.486;2022-07-29T00:47:58;12.53;;;12.03;;
18138;SDS011;9195;53.176;9.486;2022-07-29T00:50:23;12.70;;;12.20;;
18138;SDS011;9195;53.176;9.486;2022-07-29T00:52:49;12.93;;;12.33;;
18138;SDS011;9195;53.176;9.486;2022-07-29T00:55:16;12.40;;;11.90;;
18138;SDS011;9195;53.176;9.486;2022-07-29T00:57:42;12.73;;;12.23;;
18138;SDS011;9195;53.176;9.486;2022-07-29T01:00:10;12.60;;;12.10;;
18138;SDS011;9195;53.176;9.486;2022-07-29T01:02:38;12.47;;;11.97;;
18138;SDS011;9195;53.176;9.486;2022-07-29T01:05:04;12.20;;;11.70;;
18138;SDS011;9195;53.176;9.486;2022-07-29T01:07:31;12.67;;;12.17;;
18138;SDS011;9195;53.176;9.486;2022-07-29T01:09:59;12.57;;;12.07;;
18138;SDS011;9195;53.176;9.486;2022-07-29T01:12:26;12.70;;;12.20;;
18138;SDS011;9195;53.176;9.486;2022-07-29T01:14:57;12.57;;;12.07;;
18138;SDS011;9195;53.176;9.486;2022-07-29T01:20:13;13.10;;;12.50;;
18138;SDS011;9195;53.176;9.486;2022-07-29T01:31:18;12.60;;;12.10;;
18138;SDS011;9195;53.176;9.486;2022-07-29T01:33:50;13.00;;;12.40;;
18138;SDS011;9195;53.176;9.486;2022-07-29T01:36:43;12.23;;;11.73;;
18138;SDS011;9195;53.176;9.486;2022-07-29T01:39:22;12.83;;;12.27;;
18138;SDS011;9195;53.176;9.486;2022-07-29T01:44:55;12.67;;;12.17;;
18138;SDS011;9195;53.176;9.486;2022-07-29T01:47:33;12.90;;;12.33;;
18138;SDS011;9195;53.176;9.486;2022-07-29T01:50:05;12.40;;;11.90;;
18138;SDS011;9195;53.176;9.486;2022-07-29T01:52:43;12.37;;;11.87;;
18138;SDS011;9195;53.176;9.486;2022-07-29T01:55:17;12.70;;;12.20;;
18138;SDS011;9195;53.176;9.486;2022-07-29T01:57:47;12.47;;;11.97;;
18138;SDS011;9195;53.176;9.486;2022-07-29T02:00:14;12.40;;;11.90;;
18138;SDS011;9195;53.176;9.486;2022-07-29T02:02:41;12.40;;;11.90;;
18138;SDS011;9195;53.176;9.486;2022-07-29T02:05:10;12.53;;;12.03;;
18138;SDS011;9195;53.176;9.486;2022-07-29T02:07:39;12.60;;;12.10;;
18138;SDS011;9195;53.176;9.486;2022-07-29T02:10:07;12.73;;;12.23;;
18138;SDS011;9195;53.176;9.486;2022-07-29T02:12:34;12.60;;;12.10;;
18138;SDS011;9195;53.176;9.486;2022-07-29T02:15:01;12.73;;;12.20;;
18138;SDS011;9195;53.176;9.486;2022-07-29T02:17:32;12.90;;;12.30;;
18138;SDS011;9195;53.176;9.486;2022-07-29T02:20:01;12.70;;;12.20;;
18138;SDS011;9195;53.176;9.486;2022-07-29T02:22:29;12.60;;;12.10;;
18138;SDS011;9195;53.176;9.486;2022-07-29T02:24:56;12.70;;;12.20;;
18138;SDS011;9195;53.176;9.486;2022-07-29T02:27:23;12.67;;;12.17;;
18138;SDS011;9195;53.176;9.486;2022-07-29T02:29:52;12.33;;;11.83;;
18138;SDS011;9195;53.176;9.486;2022-07-29T02:32:18;12.57;;;12.07;;
18138;SDS011;9195;53.176;9.486;2022-07-29T02:34:46;12.60;;;12.10;;
18138;SDS011;9195;53.176;9.486;2022-07-29T02:37:13;12.60;;;12.10;;
18138;SDS011;9195;53.176;9.486;2022-07-29T02:39:42;12.80;;;12.23;;
18138;SDS011;9195;53.176;9.486;2022-07-29T02:42:10;12.77;;;12.23;;
18138;SDS011;9195;53.176;9.486;2022-07-29T02:44:38;13.07;;;12.47;;
18138;SDS011;9195;53.176;9.486;2022-07-29T02:47:07;12.50;;;12.00;;
18138;SDS011;9195;53.176;9.486;2022-07-29T02:49:44;12.47;;;11.97;;
18138;SDS011;9195;53.176;9.486;2022-07-29T02:55:28;12.23;;;11.73;;
18138;SDS011;9195;53.176;9.486;2022-07-29T03:00:47;12.50;;;12.00;;
18138;SDS011;9195;53.176;9.486;2022-07-29T03:03:16;11.70;;;11.20;;
18138;SDS011;9195;53.176;9.486;2022-07-29T03:05:43;11.80;;;11.30;;
18138;SDS011;9195;53.176;9.486;2022-07-29T03:08:10;11.60;;;11.10;;
18138;SDS011;9195;53.176;9.486;2022-07-29T03:10:37;11.63;;;11.13;;
18138;SDS011;9195;53.176;9.486;2022-07-29T03:13:05;11.73;;;11.23;;
18138;SDS011;9195;53.176;9.486;2022-07-29T03:15:32;11.97;;;11.47;;
18138;SDS011;9195;53.176;9.486;2022-07-29T03:17:59;11.97;;;11.47;;
18138;SDS011;9195;53.176;9.486;2022-07-29T03:20:25;11.93;;;11.43;;
18138;SDS011;9195;53.176;9.486;2022-07-29T03:22:51;11.97;;;11.47;;
18138;SDS011;9195;53.176;9.486;2022-07-29T03:25:18;11.97;;;11.47;;
18138;SDS011;9195;53.176;9.486;2022-07-29T03:27:45;12.00;;;11.50;;
18138;SDS011;9195;53.176;9.486;2022-07-29T03:30:12;11.83;;;11.33;;
18138;SDS011;9195;53.176;9.486;2022-07-29T03:32:38;11.97;;;11.47;;
18138;SDS011;9195;53.176;9.486;2022-07-29T03:35:05;11.90;;;11.40;;
18138;SDS011;9195;53.176;9.486;2022-07-29T03:37:31;11.97;;;11.47;;
18138;SDS011;9195;53.176;9.486;2022-07-29T03:39:58;12.97;;;12.37;;
18138;SDS011;9195;53.176;9.486;2022-07-29T03:42:25;12.77;;;12.23;;
18138;SDS011;9195;53.176;9.486;2022-07-29T03:44:55;13.00;;;12.40;;
18138;SDS011;9195;53.176;9.486;2022-07-29T03:47:24;12.87;;;12.30;;
18138;SDS011;9195;53.176;9.486;2022-07-29T03:49:52;12.70;;;12.20;;
18138;SDS011;9195;53.176;9.486;2022-07-29T03:52:22;12.67;;;12.17;;
18138;SDS011;9195;53.176;9.486;2022-07-29T03:54:48;12.73;;;12.23;;
18138;SDS011;9195;53.176;9.486;2022-07-29T03:57:14;12.67;;;12.17;;
18138;SDS011;9195;53.176;9.486;2022-07-29T03:59:41;12.30;;;11.80;;
18138;SDS011;9195;53.176;9.486;2022-07-29T04:02:08;12.20;;;11.70;;
18138;SDS011;9195;53.176;9.486;2022-07-29T04:04:36;12.10;;;11.60;;
18138;SDS011;9195;53.176;9.486;2022-07-29T04:07:02;12.80;;;12.20;;
18138;SDS011;9195;53.176;9.486;2022-07-29T04:09:28;12.77;;;12.23;;
18138;SDS011;9195;53.176;9.486;2022-07-29T04:11:55;12.23;;;11.73;;
18138;SDS011;9195;53.176;9.486;2022-07-29T04:14:20;12.83;;;12.23;;
18138;SDS011;9195;53.176;9.486;2022-07-29T04:16:46;12.93;;;12.33;;
18138;SDS011;9195;53.176;9.486;2022-07-29T04:19:12;12.50;;;12.00;;
18138;SDS011;9195;53.176;9.486;2022-07-29T04:21:38;13.00;;;12.40;;
18138;SDS011;9195;53.176;9.486;2022-07-29T04:24:05;12.43;;;11.93;;
18138;SDS011;9195;53.176;9.486;2022-07-29T04:26:31;12.63;;;12.13;;
18138;SDS011;9195;53.176;9.486;2022-07-29T04:28:57;12.67;;;12.17;;
18138;SDS011;9195;53.176;9.486;2022-07-29T04:31:22;12.47;;;11.97;;
18138;SDS011;9195;53.176;9.486;2022-07-29T04:33:48;12.57;;;12.07;;
18138;SDS011;9195;53.176;9.486;2022-07-29T04:36:14;12.37;;;11.87;;
18138;SDS011;9195;53.176;9.486;2022-07-29T04:38:39;11.77;;;11.27;;
18138;SDS011;9195;53.176;9.486;2022-07-29T04:41:05;12.20;;;11.70;;
18138;SDS011;9195;53.176;9.486;2022-07-29T04:43:32;12.03;;;11.53;;
18138;SDS011;9195;53.176;9.486;2022-07-29T04:45:58;12.00;;;11.50;;
18138;SDS011;9195;53.176;9.486;2022-07-29T04:48:24;12.17;;;11.67;;
18138;SDS011;9195;53.176;9.486;2022-07-29T04:50:50;12.13;;;11.63;;
18138;SDS011;9195;53.176;9.486;2022-07-29T04:53:15;12.40;;;11.90;;
18138;SDS011;9195;53.176;9.486;2022-07-29T04:55:41;12.43;;;11.93;;
18138;SDS011;9195;53.176;9.486;2022-07-29T04:58:06;12.30;;;11.80;;
18138;SDS011;9195;53.176;9.486;2022-07-29T05:00:32;12.30;;;11.80;;
18138;SDS011;9195;53.176;9.486;2022-07-29T05:02:58;12.27;;;11.77;;
18138;SDS011;9195;53.176;9.486;2022-07-29T05:05:24;13.30;;;12.70;;
18138;SDS011;9195;53.176;9.486;2022-07-29T05:07:49;12.73;;;12.20;;
18138;SDS011;9195;53.176;9.486;2022-07-29T05:10:15;12.63;;;12.13;;
18138;SDS011;9195;53.176;9.486;2022-07-29T05:12:40;12.97;;;12.37;;
18138;SDS011;9195;53.176;9.486;2022-07-29T05:15:06;12.83;;;12.27;;
18138;SDS011;9195;53.176;9.486;2022-07-29T05:17:32;13.03;;;12.43;;
18138;SDS011;9195;53.176;9.486;2022-07-29T05:19:58;12.63;;;12.13;;
18138;SDS011;9195;53.176;9.486;2022-07-29T05:22:24;12.97;;;12.37;;
18138;SDS011;9195;53.176;9.486;2022-07-29T05:24:49;13.07;;;12.47;;
18138;SDS011;9195;53.176;9.486;2022-07-29T05:27:15;13.13;;;12.53;;
18138;SDS011;9195;53.176;9.486;2022-07-29T05:29:40;13.40;;;12.80;;
18138;SDS011;9195;53.176;9.486;2022-07-29T05:32:06;13.10;;;12.50;;
18138;SDS011;9195;53.176;9.486;2022-07-29T05:34:32;13.37;;;12.77;;
18138;SDS011;9195;53.176;9.486;2022-07-29T05:36:58;13.17;;;12.57;;
18138;SDS011;9195;53.176;9.486;2022-07-29T05:39:23;13.13;;;12.53;;
18138;SDS011;9195;53.176;9.486;2022-07-29T05:41:49;13.07;;;12.47;;
18138;SDS011;9195;53.176;9.486;2022-07-29T05:44:15;13.07;;;12.47;;
18138;SDS011;9195;53.176;9.486;2022-07-29T05:46:40;13.37;;;12.77;;
18138;SDS011;9195;53.176;9.486;2022-07-29T05:49:06;13.17;;;12.57;;
18138;SDS011;9195;53.176;9.486;2022-07-29T05:51:35;13.03;;;12.43;;
18138;SDS011;9195;53.176;9.486;2022-07-29T05:54:01;13.00;;;12.40;;
18138;SDS011;9195;53.176;9.486;2022-07-29T05:56:27;13.13;;;12.53;;
18138;SDS011;9195;53.176;9.486;2022-07-29T05:58:53;12.87;;;12.27;;
18138;SDS011;9195;53.176;9.486;2022-07-29T06:01:19;12.47;;;11.97;;
18138;SDS011;9195;53.176;9.486;2022-07-29T06:03:44;13.03;;;12.43;;
18138;SDS011;9195;53.176;9.486;2022-07-29T06:06:10;13.40;;;12.80;;
18138;SDS011;9195;53.176;9.486;2022-07-29T06:08:36;13.50;;;12.90;;
18138;SDS011;9195;53.176;9.486;2022-07-29T06:11:03;13.50;;;12.90;;
18138;SDS011;9195;53.176;9.486;2022-07-29T06:13:29;13.60;;;13.00;;
18138;SDS011;9195;53.176;9.486;2022-07-29T06:15:55;13.90;;;13.30;;
18138;SDS011;9195;53.176;9.486;2022-07-29T06:18:21;13.87;;;13.27;;
18138;SDS011;9195;53.176;9.486;2022-07-29T06:20:49;13.80;;;13.20;;
18138;SDS011;9195;53.176;9.486;2022-07-29T06:23:15;13.77;;;13.17;;
18138;SDS011;9195;53.176;9.486;2022-07-29T06:25:41;13.20;;;12.60;;
18138;SDS011;9195;53.176;9.486;2022-07-29T06:28:07;13.63;;;13.03;;
18138;SDS011;9195;53.176;9.486;2022-07-29T06:30:33;13.03;;;12.43;;
18138;SDS011;9195;53.176;9.486;2022-07-29T06:32:58;13.47;;;12.87;;
18138;SDS011;9195;53.176;9.486;2022-07-29T06:35:25;13.17;;;12.57;;
18138;SDS011;9195;53.176;9.486;2022-07-29T06:37:50;13.30;;;12.70;;
18138;SDS011;9195;53.176;9.486;2022-07-29T06:40:17;13.50;;;12.90;;
18138;SDS011;9195;53.176;9.486;2022-07-29T06:43:01;13.47;;;12.87;;
18138;SDS011;9195;53.176;9.486;2022-07-29T06:45:26;13.30;;;12.70;;
18138;SDS011;9195;53.176;9.486;2022-07-29T06:47:52;13.43;;;12.83;;
18138;SDS011;9195;53.176;9.486;2022-07-29T06:50:18;13.80;;;13.20;;
18138;SDS011;9195;53.176;9.486;2022-07-29T06:52:43;13.20;;;12.60;;
18138;SDS011;9195;53.176;9.486;2022-07-29T06:55:09;13.83;;;13.23;;
18138;SDS011;9195;53.176;9.486;2022-07-29T06:57:34;13.23;;;12.63;;
18138;SDS011;9195;53.176;9.486;2022-07-29T07:00:00;13.90;;;13.30;;
18138;SDS011;9195;53.176;9.486;2022-07-29T07:02:26;14.33;;;13.73;;
18138;SDS011;9195;53.176;9.486;2022-07-29T07:04:51;14.03;;;13.43;;
18138;SDS011;9195;53.176;9.486;2022-07-29T07:07:17;13.80;;;13.20;;
18138;SDS011;9195;53.176;9.486;2022-07-29T07:09:43;13.80;;;13.20;;
18138;SDS011;9195;53.176;9.486;2022-07-29T07:12:08;13.43;;;12.83;;
18138;SDS011;9195;53.176;9.486;2022-07-29T07:14:34;13.60;;;13.00;;
18138;SDS011;9195;53.176;9.486;2022-07-29T07:17:00;13.40;;;12.80;;
18138;SDS011;9195;53.176;9.486;2022-07-29T07:19:29;13.37;;;12.77;;
18138;SDS011;9195;53.176;9.486;2022-07-29T07:21:54;13.60;;;13.00;;
18138;SDS011;9195;53.176;9.486;2022-07-29T07:24:20;13.33;;;12.73;;
18138;SDS011;9195;53.176;9.486;2022-07-29T07:26:46;13.70;;;13.10;;
18138;SDS011;9195;53.176;9.486;2022-07-29T07:29:11;13.27;;;12.67;;
18138;SDS011;9195;53.176;9.486;2022-07-29T07:31:37;13.90;;;13.30;;
18138;SDS011;9195;53.176;9.486;2022-07-29T07:34:03;13.87;;;13.27;;
18138;SDS011;9195;53.176;9.486;2022-07-29T07:36:29;13.60;;;13.00;;
18138;SDS011;9195;53.176;9.486;2022-07-29T07:38:55;13.80;;;13.20;;
18138;SDS011;9195;53.176;9.486;2022-07-29T07:41:21;13.67;;;13.07;;
18138;SDS011;9195;53.176;9.486;2022-07-29T07:43:47;14.13;;;13.53;;
18138;SDS011;9195;53.176;9.486;2022-07-29T07:46:12;14.03;;;13.43;;
18138;SDS011;9195;53.176;9.486;2022-07-29T07:48:38;14.67;;;13.97;;
18138;SDS011;9195;53.176;9.486;2022-07-29T07:51:04;14.37;;;13.77;;
18138;SDS011;9195;53.176;9.486;2022-07-29T07:53:29;14.03;;;13.43;;
18138;SDS011;9195;53.176;9.486;2022-07-29T07:55:55;13.83;;;13.23;;
18138;SDS011;9195;53.176;9.486;2022-07-29T07:58:21;14.37;;;13.77;;
18138;SDS011;9195;53.176;9.486;2022-07-29T08:00:46;14.23;;;13.63;;
18138;SDS011;9195;53.176;9.486;2022-07-29T08:03:12;14.27;;;13.67;;
18138;SDS011;9195;53.176;9.486;2022-07-29T08:05:39;14.37;;;13.77;;
18138;SDS011;9195;53.176;9.486;2022-07-29T08:08:05;14.17;;;13.57;;
18138;SDS011;9195;53.176;9.486;2022-07-29T08:10:31;14.37;;;13.77;;
18138;SDS011;9195;53.176;9.486;2022-07-29T08:13:15;13.93;;;13.33;;
18138;SDS011;9195;53.176;9.486;2022-07-29T08:15:40;14.03;;;13.43;;
18138;SDS011;9195;53.176;9.486;2022-07-29T08:18:07;14.30;;;13.70;;
18138;SDS011;9195;53.176;9.486;2022-07-29T08:20:33;13.87;;;13.27;;
18138;SDS011;9195;53.176;9.486;2022-07-29T08:23:01;13.73;;;13.13;;
18138;SDS011;9195;53.176;9.486;2022-07-29T08:25:27;14.50;;;13.90;;
18138;SDS011;9195;53.176;9.486;2022-07-29T08:27:53;14.33;;;13.73;;
18138;SDS011;9195;53.176;9.486;2022-07-29T08:30:19;14.30;;;13.70;;
18138;SDS011;9195;53.176;9.486;2022-07-29T08:32:44;14.47;;;13.87;;
18138;SDS011;9195;53.176;9.486;2022-07-29T08:35:12;14.17;;;13.57;;
18138;SDS011;9195;53.176;9.486;2022-07-29T08:37:37;14.43;;;13.83;;
18138;SDS011;9195;53.176;9.486;2022-07-29T08:40:03;14.77;;;14.07;;
18138;SDS011;9195;53.176;9.486;2022-07-29T08:42:31;14.07;;;13.47;;
18138;SDS011;9195;53.176;9.486;2022-07-29T08:44:56;14.10;;;13.50;;
18138;SDS011;9195;53.176;9.486;2022-07-29T08:47:22;14.30;;;13.70;;
18138;SDS011;9195;53.176;9.486;2022-07-29T08:49:51;14.10;;;13.50;;
18138;SDS011;9195;53.176;9.486;2022-07-29T08:52:17;14.30;;;13.70;;
18138;SDS011;9195;53.176;9.486;2022-07-29T08:54:44;14.17;;;13.57;;
18138;SDS011;9195;53.176;9.486;2022-07-29T08:57:13;13.87;;;13.27;;
18138;SDS011;9195;53.176;9.486;2022-07-29T08:59:40;14.30;;;13.70;;
18138;SDS011;9195;53.176;9.486;2022-07-29T09:02:08;14.10;;;13.50;;
18138;SDS011;9195;53.176;9.486;2022-07-29T09:04:40;14.20;;;13.60;;
18138;SDS011;9195;53.176;9.486;2022-07-29T09:07:06;13.85;;;13.25;;
18138;SDS011;9195;53.176;9.486;2022-07-29T09:09:33;13.97;;;13.37;;
18138;SDS011;9195;53.176;9.486;2022-07-29T09:11:59;14.15;;;13.55;;
18138;SDS011;9195;53.176;9.486;2022-07-29T09:14:25;14.05;;;13.45;;
18138;SDS011;9195;53.176;9.486;2022-07-29T09:19:19;14.90;;;14.20;;
18138;SDS011;9195;53.176;9.486;2022-07-29T09:21:55;15.27;;;14.57;;
18138;SDS011;9195;53.176;9.486;2022-07-29T09:24:23;15.23;;;14.52;;
18138;SDS011;9195;53.176;9.486;2022-07-29T09:26:50;15.45;;;14.75;;
18138;SDS011;9195;53.176;9.486;2022-07-29T09:29:17;14.55;;;13.95;;
18138;SDS011;9195;53.176;9.486;2022-07-29T09:31:45;14.43;;;13.82;;
18138;SDS011;9195;53.176;9.486;2022-07-29T09:34:13;14.43;;;13.82;;
18138;SDS011;9195;53.176;9.486;2022-07-29T09:36:41;14.27;;;13.68;;
18138;SDS011;9195;53.176;9.486;2022-07-29T09:39:11;14.70;;;14.02;;
18138;SDS011;9195;53.176;9.486;2022-07-29T09:44:21;15.15;;;14.45;;
18138;SDS011;9195;53.176;9.486;2022-07-29T09:49:24;15.70;;;15.00;;
18138;SDS011;9195;53.176;9.486;2022-07-29T09:52:00;15.48;;;14.77;;
18138;SDS011;9195;53.176;9.486;2022-07-29T09:54:28;16.25;;;15.55;;
18138;SDS011;9195;53.176;9.486;2022-07-29T09:56:59;14.57;;;13.98;;
18138;SDS011;9195;53.176;9.486;2022-07-29T09:59:24;15.30;;;14.60;;
18138;SDS011;9195;53.176;9.486;2022-07-29T10:01:51;14.05;;;13.45;;
18138;SDS011;9195;53.176;9.486;2022-07-29T10:04:17;14.60;;;13.98;;
18138;SDS011;9195;53.176;9.486;2022-07-29T10:07:04;14.75;;;14.07;;
18138;SDS011;9195;53.176;9.486;2022-07-29T10:09:30;14.75;;;14.07;;
18138;SDS011;9195;53.176;9.486;2022-07-29T10:12:04;14.50;;;13.90;;
18138;SDS011;9195;53.176;9.486;2022-07-29T10:14:30;14.85;;;14.15;;
18138;SDS011;9195;53.176;9.486;2022-07-29T10:16:58;15.60;;;14.90;;
18138;SDS011;9195;53.176;9.486;2022-07-29T10:19:25;15.25;;;14.55;;
18138;SDS011;9195;53.176;9.486;2022-07-29T10:21:58;15.07;;;14.38;;
18138;SDS011;9195;53.176;9.486;2022-07-29T10:24:27;15.43;;;14.73;;
18138;SDS011;9195;53.176;9.486;2022-07-29T10:26:55;15.00;;;14.30;;
18138;SDS011;9195;53.176;9.486;2022-07-29T10:29:23;15.15;;;14.45;;
18138;SDS011;9195;53.176;9.486;2022-07-29T10:31:53;15.30;;;14.60;;
18138;SDS011;9195;53.176;9.486;2022-07-29T10:37:56;15.38;;;14.68;;
18138;SDS011;9195;53.176;9.486;2022-07-29T10:43:20;14.82;;;14.15;;
18138;SDS011;9195;53.176;9.486;2022-07-29T10:45:49;15.32;;;14.63;;
18138;SDS011;9195;53.176;9.486;2022-07-29T10:48:21;15.00;;;14.30;;
18138;SDS011;9195;53.176;9.486;2022-07-29T10:50:54;14.95;;;14.25;;
18138;SDS011;9195;53.176;9.486;2022-07-29T10:53:47;15.07;;;14.38;;
18138;SDS011;9195;53.176;9.486;2022-07-29T10:59:36;14.70;;;14.10;;
18138;SDS011;9195;53.176;9.486;2022-07-29T11:01:43;14.38;;;13.77;;
18138;SDS011;9195;53.176;9.486;2022-07-29T11:04:08;14.77;;;14.15;;
18138;SDS011;9195;53.176;9.486;2022-07-29T11:09:34;14.75;;;14.10;;
18138;SDS011;9195;53.176;9.486;2022-07-29T11:12:00;14.43;;;13.82;;
18138;SDS011;9195;53.176;9.486;2022-07-29T11:17:23;14.90;;;14.20;;
18138;SDS011;9195;53.176;9.486;2022-07-29T11:19:48;14.63;;;14.02;;
18138;SDS011;9195;53.176;9.486;2022-07-29T11:22:33;14.82;;;14.15;;
18138;SDS011;9195;53.176;9.486;2022-07-29T11:25:13;14.80;;;14.10;;
18138;SDS011;9195;53.176;9.486;2022-07-29T11:27:44;15.40;;;14.70;;
18138;SDS011;9195;53.176;9.486;2022-07-29T11:30:10;14.85;;;14.15;;
18138;SDS011;9195;53.176;9.486;2022-07-29T11:32:40;15.20;;;14.50;;
18138;SDS011;9195;53.176;9.486;2022-07-29T11:35:20;14.73;;;14.02;;
18138;SDS011;9195;53.176;9.486;2022-07-29T11:49:18;15.18;;;14.48;;
18138;SDS011;9195;53.176;9.486;2022-07-29T11:51:54;14.93;;;14.23;;
18138;SDS011;9195;53.176;9.486;2022-07-29T11:54:27;14.77;;;14.13;;
18138;SDS011;9195;53.176;9.486;2022-07-29T11:56:57;15.38;;;14.68;;
18138;SDS011;9195;53.176;9.486;2022-07-29T11:59:24;15.50;;;14.80;;
18138;SDS011;9195;53.176;9.486;2022-07-29T12:01:53;15.20;;;14.50;;
18138;SDS011;9195;53.176;9.486;2022-07-29T12:04:22;15.02;;;14.32;;
18138;SDS011;9195;53.176;9.486;2022-07-29T12:06:55;15.45;;;14.75;;
18138;SDS011;9195;53.176;9.486;2022-07-29T12:09:21;15.20;;;14.50;;
18138;SDS011;9195;53.176;9.486;2022-07-29T12:11:48;15.13;;;14.43;;
18138;SDS011;9195;53.176;9.486;2022-07-29T12:14:30;15.40;;;14.70;;
18138;SDS011;9195;53.176;9.486;2022-07-29T12:16:57;15.27;;;14.57;;
18138;SDS011;9195;53.176;9.486;2022-07-29T12:19:24;15.00;;;14.30;;
18138;SDS011;9195;53.176;9.486;2022-07-29T12:21:53;14.90;;;14.20;;
18138;SDS011;9195;53.176;9.486;2022-07-29T12:24:21;14.88;;;14.20;;
18138;SDS011;9195;53.176;9.486;2022-07-29T12:26:51;14.80;;;14.10;;
18138;SDS011;9195;53.176;9.486;2022-07-29T12:29:18;14.85;;;14.15;;
18138;SDS011;9195;53.176;9.486;2022-07-29T12:31:44;15.10;;;14.40;;
18138;SDS011;9195;53.176;9.486;2022-07-29T12:34:15;15.45;;;14.75;;
18138;SDS011;9195;53.176;9.486;2022-07-29T12:36:41;15.00;;;14.30;;
18138;SDS011;9195;53.176;9.486;2022-07-29T12:39:08;15.20;;;14.50;;
18138;SDS011;9195;53.176;9.486;2022-07-29T12:41:35;14.82;;;14.13;;
18138;SDS011;9195;53.176;9.486;2022-07-29T12:44:01;15.43;;;14.73;;
18138;SDS011;9195;53.176;9.486;2022-07-29T12:46:26;15.23;;;14.52;;
18138;SDS011;9195;53.176;9.486;2022-07-29T12:48:53;15.30;;;14.60;;
18138;SDS011;9195;53.176;9.486;2022-07-29T12:51:27;15.57;;;14.88;;
18138;SDS011;9195;53.176;9.486;2022-07-29T12:54:05;15.27;;;14.57;;
18138;SDS011;9195;53.176;9.486;2022-07-29T12:56:35;14.70;;;14.00;;
18138;SDS011;9195;53.176;9.486;2022-07-29T12:59:18;14.93;;;14.23;;
18138;SDS011;9195;53.176;9.486;2022-07-29T13:01:45;14.70;;;14.00;;
18138;SDS011;9195;53.176;9.486;2022-07-29T13:04:29;14.90;;;14.20;;
18138;SDS011;9195;53.176;9.486;2022-07-29T13:07:06;15.60;;;14.90;;
18138;SDS011;9195;53.176;9.486;2022-07-29T13:09:41;15.25;;;14.55;;
18138;SDS011;9195;53.176;9.486;2022-07-29T13:12:11;14.95;;;14.25;;
18138;SDS011;9195;53.176;9.486;2022-07-29T13:14:41;15.50;;;14.80;;
18138;SDS011;9195;53.176;9.486;2022-07-29T13:17:13;15.30;;;14.60;;
18138;SDS011;9195;53.176;9.486;2022-07-29T13:19:42;15.25;;;14.55;;
18138;SDS011;9195;53.176;9.486;2022-07-29T13:22:14;15.48;;;14.77;;
18138;SDS011;9195;53.176;9.486;2022-07-29T13:24:50;15.90;;;15.20;;
18138;SDS011;9195;53.176;9.486;2022-07-29T13:27:19;15.70;;;15.00;;
18138;SDS011;9195;53.176;9.486;2022-07-29T13:29:47;15.77;;;15.07;;
18138;SDS011;9195;53.176;9.486;2022-07-29T13:32:16;16.13;;;15.43;;
18138;SDS011;9195;53.176;9.486;2022-07-29T13:34:41;15.82;;;15.13;;
18138;SDS011;9195;53.176;9.486;2022-07-29T13:37:07;15.77;;;15.07;;
18138;SDS011;9195;53.176;9.486;2022-07-29T13:39:33;15.80;;;15.10;;
18138;SDS011;9195;53.176;9.486;2022-07-29T13:41:58;15.90;;;15.20;;
18138;SDS011;9195;53.176;9.486;2022-07-29T13:44:24;15.90;;;15.20;;
18138;SDS011;9195;53.176;9.486;2022-07-29T13:46:49;16.00;;;15.30;;
18138;SDS011;9195;53.176;9.486;2022-07-29T13:49:15;16.52;;;15.77;;
18138;SDS011;9195;53.176;9.486;2022-07-29T13:51:41;16.60;;;15.80;;
18138;SDS011;9195;53.176;9.486;2022-07-29T13:54:07;16.83;;;16.02;;
18138;SDS011;9195;53.176;9.486;2022-07-29T13:56:32;16.88;;;16.08;;
18138;SDS011;9195;53.176;9.486;2022-07-29T13:58:59;16.98;;;16.17;;
18138;SDS011;9195;53.176;9.486;2022-07-29T14:01:25;16.83;;;16.02;;
18138;SDS011;9195;53.176;9.486;2022-07-29T14:03:51;16.90;;;16.10;;
18138;SDS011;9195;53.176;9.486;2022-07-29T14:06:17;17.02;;;16.23;;
18138;SDS011;9195;53.176;9.486;2022-07-29T14:08:43;16.83;;;16.02;;
18138;SDS011;9195;53.176;9.486;2022-07-29T14:11:08;16.85;;;16.05;;
18138;SDS011;9195;53.176;9.486;2022-07-29T14:13:34;17.02;;;16.23;;
18138;SDS011;9195;53.176;9.486;2022-07-29T14:16:00;17.48;;;16.67;;
18138;SDS011;9195;53.176;9.486;2022-07-29T14:18:25;17.60;;;16.80;;
18138;SDS011;9195;53.176;9.486;2022-07-29T14:20:51;18.23;;;17.40;;
18138;SDS011;9195;53.176;9.486;2022-07-29T14:23:17;18.45;;;17.58;;
18138;SDS011;9195;53.176;9.486;2022-07-29T14:25:43;18.25;;;17.45;;
18138;SDS011;9195;53.176;9.486;2022-07-29T14:28:08;18.13;;;17.33;;
18138;SDS011;9195;53.176;9.486;2022-07-29T14:30:34;19.30;;;18.40;;
18138;SDS011;9195;53.176;9.486;2022-07-29T14:32:59;18.30;;;17.50;;
18138;SDS011;9195;53.176;9.486;2022-07-29T14:35:25;17.63;;;16.83;;
18138;SDS011;9195;53.176;9.486;2022-07-29T14:37:51;16.73;;;15.93;;
18138;SDS011;9195;53.176;9.486;2022-07-29T14:40:16;17.08;;;16.27;;
18138;SDS011;9195;53.176;9.486;2022-07-29T14:42:42;17.30;;;16.50;;
18138;SDS011;9195;53.176;9.486;2022-07-29T14:45:08;16.95;;;16.15;;
18138;SDS011;9195;53.176;9.486;2022-07-29T14:47:35;17.90;;;17.10;;
18138;SDS011;9195;53.176;9.486;2022-07-29T14:50:01;17.30;;;16.50;;
18138;SDS011;9195;53.176;9.486;2022-07-29T14:52:28;17.23;;;16.42;;
18138;SDS011;9195;53.176;9.486;2022-07-29T14:54:53;16.85;;;16.05;;
18138;SDS011;9195;53.176;9.486;2022-07-29T14:57:19;16.45;;;15.68;;
18138;SDS011;9195;53.176;9.486;2022-07-29T14:59:44;16.65;;;15.85;;
18138;SDS011;9195;53.176;9.486;2022-07-29T15:02:10;16.98;;;16.17;;
18138;SDS011;9195;53.176;9.486;2022-07-29T15:04:36;16.95;;;16.15;;
18138;SDS011;9195;53.176;9.486;2022-07-29T15:07:01;17.67;;;16.88;;
18138;SDS011;9195;53.176;9.486;2022-07-29T15:09:27;17.38;;;16.58;;
18138;SDS011;9195;53.176;9.486;2022-07-29T15:11:53;17.98;;;17.17;;
18138;SDS011;9195;53.176;9.486;2022-07-29T15:14:19;18.02;;;17.15;;
18138;SDS011;9195;53.176;9.486;2022-07-29T15:16:45;17.45;;;16.65;;
18138;SDS011;9195;53.176;9.486;2022-07-29T15:19:11;17.60;;;16.80;;
18138;SDS011;9195;53.176;9.486;2022-07-29T15:21:37;17.35;;;16.55;;
18138;SDS011;9195;53.176;9.486;2022-07-29T15:24:03;17.35;;;16.55;;
18138;SDS011;9195;53.176;9.486;2022-07-29T15:26:28;17.13;;;16.33;;
18138;SDS011;9195;53.176;9.486;2022-07-29T15:28:54;16.75;;;15.95;;
18138;SDS011;9195;53.176;9.486;2022-07-29T15:31:22;17.40;;;16.60;;